createdAt,value
2019-05-22T00:01:45.712Z,9.53
2019-05-22T00:04:33.842Z,9.80
2019-05-22T00:07:05.867Z,9.90
2019-05-22T00:09:38.180Z,8.77
2019-05-22T00:12:11.337Z,8.80
2019-05-22T00:14:41.633Z,9.60
2019-05-22T00:17:13.777Z,9.43
2019-05-22T00:19:45.773Z,11.70
2019-05-22T00:22:23.542Z,11.20
2019-05-22T00:24:55.661Z,9.63
2019-05-22T00:27:27.685Z,8.67
2019-05-22T00:30:01.318Z,11.70
2019-05-22T00:32:33.522Z,8.93
2019-05-22T00:35:05.429Z,9.43
2019-05-22T00:37:37.014Z,8.87
2019-05-22T00:40:08.376Z,9.60
2019-05-22T00:42:41.423Z,10.30
2019-05-22T00:45:14.592Z,9.73
2019-05-22T00:47:45.148Z,11.93
2019-05-22T00:50:30.781Z,14.17
2019-05-22T00:53:07.619Z,9.47
2019-05-22T00:55:40.081Z,9.67
2019-05-22T00:58:15.490Z,10.40
2019-05-22T01:00:50.505Z,12.83
2019-05-22T01:03:26.164Z,9.93
2019-05-22T01:05:58.743Z,12.90
2019-05-22T01:08:29.100Z,10.57
2019-05-22T01:11:01.106Z,12.57
2019-05-22T01:13:33.280Z,10.23
2019-05-22T01:16:05.398Z,9.73
2019-05-22T01:18:37.697Z,10.63
2019-05-22T01:21:10.341Z,8.70
2019-05-22T01:23:43.210Z,9.80
2019-05-22T01:26:16.980Z,13.70
2019-05-22T01:28:48.539Z,10.57
2019-05-22T01:31:26.848Z,11.27
2019-05-22T01:34:01.667Z,10.50
2019-05-22T01:36:34.365Z,9.37
2019-05-22T01:39:12.438Z,10.00
2019-05-22T01:41:46.685Z,9.77
2019-05-22T01:44:18.769Z,12.63
2019-05-22T01:46:50.284Z,11.50
2019-05-22T01:49:22.113Z,9.83
2019-05-22T01:51:54.155Z,10.10
2019-05-22T01:54:25.833Z,10.83
2019-05-22T01:57:05.476Z,10.67
2019-05-22T01:59:36.824Z,10.57
2019-05-22T02:02:09.522Z,13.37
2019-05-22T02:04:39.914Z,11.47
2019-05-22T02:07:11.421Z,10.40
2019-05-22T02:09:44.258Z,10.60
2019-05-22T02:12:17.812Z,10.70
2019-05-22T02:14:50.856Z,11.17
2019-05-22T02:17:25.630Z,12.03
2019-05-22T02:19:56.131Z,10.20
2019-05-22T02:22:26.922Z,9.60
2019-05-22T02:24:57.795Z,10.77
2019-05-22T02:27:30.181Z,10.90
2019-05-22T02:30:01.592Z,11.27
2019-05-22T02:32:34.422Z,10.73
2019-05-22T02:35:08.139Z,12.73
2019-05-22T02:37:39.357Z,9.73
2019-05-22T02:40:16.017Z,9.87
2019-05-22T02:42:46.969Z,10.00
2019-05-22T02:45:18.210Z,11.63
2019-05-22T02:47:49.005Z,10.60
2019-05-22T02:50:19.966Z,11.33
2019-05-22T02:52:51.033Z,11.07
2019-05-22T02:55:21.409Z,11.70
2019-05-22T02:57:52.342Z,10.57
2019-05-22T03:00:25.999Z,10.50
2019-05-22T03:02:57.429Z,11.57
2019-05-22T03:05:28.181Z,10.87
2019-05-22T03:07:59.404Z,10.70
2019-05-22T03:10:30.602Z,10.10
2019-05-22T03:13:02.560Z,12.43
2019-05-22T03:15:33.807Z,10.53
2019-05-22T03:18:05.595Z,13.77
2019-05-22T03:20:37.913Z,10.80
2019-05-22T03:23:35.535Z,13.07
2019-05-22T03:26:08.282Z,10.43
2019-05-22T03:28:39.325Z,11.00
2019-05-22T03:31:10.278Z,10.60
2019-05-22T03:33:41.849Z,10.80
2019-05-22T03:36:15.661Z,10.60
2019-05-22T03:38:46.825Z,9.77
2019-05-22T03:41:18.264Z,10.10
2019-05-22T03:43:50.949Z,13.13
2019-05-22T03:46:27.502Z,10.17
2019-05-22T03:48:58.446Z,10.10
2019-05-22T03:51:30.103Z,10.50
2019-05-22T03:54:01.511Z,14.20
2019-05-22T03:56:32.629Z,9.60
2019-05-22T03:59:03.274Z,12.63
2019-05-22T04:01:35.318Z,10.03
2019-05-22T04:04:07.531Z,9.73
2019-05-22T04:06:40.200Z,11.10
2019-05-22T04:09:20.207Z,10.93
2019-05-22T04:11:52.243Z,10.07
2019-05-22T04:14:26.314Z,12.33
2019-05-22T04:16:57.338Z,11.17
2019-05-22T04:19:46.752Z,10.93
2019-05-22T04:22:00.793Z,9.40
2019-05-22T04:24:32.401Z,10.40
2019-05-22T04:27:05.210Z,9.83
2019-05-22T04:29:37.331Z,12.23
2019-05-22T04:32:13.160Z,10.13
2019-05-22T04:34:45.495Z,9.50
2019-05-22T04:37:16.265Z,10.20
2019-05-22T04:39:48.675Z,9.90
2019-05-22T04:42:20.717Z,8.90
2019-05-22T04:45:10.049Z,10.43
2019-05-22T04:47:42.346Z,7.70
2019-05-22T04:50:13.379Z,9.63
2019-05-22T04:52:49.314Z,7.77
2019-05-22T04:55:23.285Z,8.70
2019-05-22T04:57:55.486Z,7.40
2019-05-22T05:00:30.923Z,9.00
2019-05-22T05:03:01.817Z,9.47
2019-05-22T05:05:35.733Z,7.23
2019-05-22T05:08:06.551Z,8.70
2019-05-22T05:10:37.424Z,10.97
2019-05-22T05:13:07.926Z,7.43
2019-05-22T05:15:38.328Z,7.10
2019-05-22T05:18:08.797Z,6.23
2019-05-22T05:20:39.341Z,9.83
2019-05-22T05:23:09.789Z,6.97
2019-05-22T05:25:41.662Z,8.33
2019-05-22T05:28:12.868Z,8.63
2019-05-22T05:30:43.441Z,8.33
2019-05-22T05:33:13.937Z,6.50
2019-05-22T05:35:44.710Z,6.80
2019-05-22T05:38:15.907Z,6.00
2019-05-22T05:40:47.254Z,7.27
2019-05-22T05:43:18.272Z,6.30
2019-05-22T05:45:50.665Z,6.80
2019-05-22T05:48:22.400Z,5.60
2019-05-22T05:51:09.666Z,6.93
2019-05-22T05:54:07.086Z,6.10
2019-05-22T05:56:39.308Z,5.67
2019-05-22T05:59:10.575Z,6.47
2019-05-22T06:01:46.205Z,5.50
2019-05-22T06:04:33.937Z,6.60
2019-05-22T06:07:00.552Z,8.00
2019-05-22T06:09:30.819Z,7.00
2019-05-22T06:12:05.643Z,7.40
2019-05-22T06:14:36.026Z,5.87
2019-05-22T06:17:26.019Z,5.30
2019-05-22T06:20:00.985Z,5.27
2019-05-22T06:22:31.465Z,6.63
2019-05-22T06:25:06.216Z,9.87
2019-05-22T06:27:42.242Z,6.83
2019-05-22T06:30:21.620Z,5.30
2019-05-22T06:33:11.893Z,5.63
2019-05-22T06:35:44.417Z,6.63
2019-05-22T06:38:38.009Z,4.87
2019-05-22T06:41:09.849Z,8.57
2019-05-22T06:43:43.777Z,5.53
2019-05-22T06:46:16.463Z,5.60
2019-05-22T06:48:47.412Z,6.20
2019-05-22T06:51:19.633Z,4.40
2019-05-22T06:53:50.121Z,3.77
2019-05-22T06:56:23.770Z,4.73
2019-05-22T06:58:52.961Z,5.63
2019-05-22T07:01:24.401Z,4.77
2019-05-22T07:03:55.025Z,3.70
2019-05-22T07:06:25.532Z,3.73
2019-05-22T07:08:56.747Z,6.50
2019-05-22T07:11:27.566Z,3.53
2019-05-22T07:13:59.218Z,3.83
2019-05-22T07:16:30.317Z,5.27
2019-05-22T07:19:01.176Z,3.70
2019-05-22T07:21:34.059Z,5.93
2019-05-22T07:24:05.380Z,6.00
2019-05-22T07:26:35.958Z,4.60
2019-05-22T07:29:06.898Z,4.40
2019-05-22T07:31:37.694Z,5.47
2019-05-22T07:34:08.637Z,6.80
2019-05-22T07:36:40.964Z,3.40
2019-05-22T07:39:11.575Z,4.53
2019-05-22T07:41:42.408Z,9.87
2019-05-22T07:44:13.019Z,5.63
2019-05-22T07:46:43.849Z,3.77
2019-05-22T07:49:15.033Z,5.50
2019-05-22T07:51:55.908Z,5.10
2019-05-22T07:54:18.540Z,3.63
2019-05-22T07:56:49.268Z,3.87
2019-05-22T07:59:20.129Z,5.00
2019-05-22T08:01:51.316Z,8.13
2019-05-22T08:04:21.963Z,5.53
2019-05-22T08:06:52.941Z,5.83
2019-05-22T08:09:24.190Z,4.37
2019-05-22T08:11:56.042Z,6.13
2019-05-22T08:14:27.992Z,4.13
2019-05-22T08:16:58.475Z,5.37
2019-05-22T08:19:29.285Z,3.40
2019-05-22T08:22:07.204Z,3.60
2019-05-22T08:24:32.910Z,3.93
2019-05-22T08:27:05.441Z,5.87
2019-05-22T08:29:36.530Z,4.10
2019-05-22T08:32:08.279Z,3.70
2019-05-22T08:34:40.759Z,5.30
2019-05-22T08:37:14.345Z,5.80
2019-05-22T08:39:45.809Z,5.20
2019-05-22T08:42:18.028Z,9.00
2019-05-22T08:44:49.522Z,6.67
2019-05-22T08:47:20.954Z,4.80
2019-05-22T08:49:52.258Z,3.30
2019-05-22T08:52:24.906Z,7.23
2019-05-22T08:54:56.156Z,3.73
2019-05-22T08:57:27.302Z,4.77
2019-05-22T08:59:58.665Z,5.00
2019-05-22T09:02:30.619Z,8.10
2019-05-22T09:05:01.398Z,5.13
2019-05-22T09:07:32.570Z,4.57
2019-05-22T09:10:04.124Z,3.40
2019-05-22T09:12:35.170Z,5.43
2019-05-22T09:15:07.440Z,4.80
2019-05-22T09:17:38.077Z,3.70
2019-05-22T09:20:09.770Z,4.17
2019-05-22T09:22:41.593Z,3.40
2019-05-22T09:25:13.913Z,5.13
2019-05-22T09:27:44.938Z,5.60
2019-05-22T09:30:15.610Z,3.90
2019-05-22T09:32:47.696Z,4.00
2019-05-22T09:35:19.250Z,2.70
2019-05-22T09:37:50.269Z,4.10
2019-05-22T09:40:21.378Z,4.30
2019-05-22T09:42:52.265Z,4.63
2019-05-22T09:45:23.288Z,3.50
2019-05-22T09:47:53.757Z,3.23
2019-05-22T09:50:24.676Z,3.67
2019-05-22T09:52:57.927Z,3.67
2019-05-22T09:55:27.411Z,6.13
2019-05-22T09:57:58.506Z,4.93
2019-05-22T10:00:29.643Z,5.40
2019-05-22T10:03:00.567Z,4.97
2019-05-22T10:05:30.986Z,5.93
2019-05-22T10:08:02.057Z,4.70
2019-05-22T10:10:32.962Z,4.80
2019-05-22T10:13:03.673Z,3.90
2019-05-22T10:15:34.736Z,5.77
2019-05-22T10:18:05.549Z,4.17
2019-05-22T10:20:36.223Z,5.40
2019-05-22T10:23:15.587Z,12.70
2019-05-22T10:25:40.006Z,5.72
2019-05-22T10:28:11.822Z,4.92
2019-05-22T10:30:42.401Z,3.70
2019-05-22T10:33:13.052Z,4.53
2019-05-22T10:35:44.048Z,4.20
2019-05-22T10:38:14.677Z,5.35
2019-05-22T10:40:45.290Z,3.33
2019-05-22T10:43:16.008Z,3.60
2019-05-22T10:45:47.101Z,5.00
2019-05-22T10:48:17.738Z,4.28
2019-05-22T10:50:48.358Z,6.30
2019-05-22T10:53:32.847Z,4.17
2019-05-22T10:55:51.717Z,5.40
2019-05-22T10:58:22.459Z,5.03
2019-05-22T11:00:53.307Z,4.53
2019-05-22T11:03:23.860Z,5.15
2019-05-22T11:06:06.705Z,5.08
2019-05-22T11:08:31.744Z,3.33
2019-05-22T11:10:59.707Z,4.33
2019-05-22T11:13:34.061Z,3.92
2019-05-22T11:16:04.144Z,4.70
2019-05-22T11:18:35.920Z,6.60
2019-05-22T11:21:07.146Z,4.05
2019-05-22T11:23:51.102Z,4.67
2019-05-22T11:26:10.734Z,3.80
2019-05-22T11:28:42.320Z,13.65
2019-05-22T11:31:13.407Z,9.45
2019-05-22T11:33:44.412Z,6.37
2019-05-22T11:36:16.103Z,4.17
2019-05-22T11:38:46.874Z,4.55
2019-05-22T11:41:18.439Z,7.75
2019-05-22T11:43:49.469Z,4.37
2019-05-22T11:46:20.108Z,6.45
2019-05-22T11:48:51.311Z,5.20
2019-05-22T11:51:22.612Z,5.03
2019-05-22T11:54:08.274Z,4.83
2019-05-22T11:56:25.546Z,7.67
2019-05-22T11:58:56.239Z,6.33
2019-05-22T12:01:26.786Z,4.30
2019-05-22T12:03:58.901Z,5.70
2019-05-22T12:06:30.682Z,5.47
2019-05-22T12:09:01.420Z,6.75
2019-05-22T12:11:32.348Z,7.28
2019-05-22T12:14:03.337Z,3.92
2019-05-22T12:16:34.043Z,4.50
2019-05-22T12:19:05.515Z,5.30
2019-05-22T12:21:36.264Z,3.20
2019-05-22T12:24:07.231Z,4.62
2019-05-22T12:26:38.535Z,4.20
2019-05-22T12:29:09.302Z,2.90
2019-05-22T12:31:40.150Z,4.78
2019-05-22T12:34:10.920Z,5.25
2019-05-22T12:36:41.649Z,3.47
2019-05-22T12:39:13.496Z,3.52
2019-05-22T12:41:45.933Z,7.60
2019-05-22T12:44:17.135Z,6.28
2019-05-22T12:46:47.918Z,4.62
2019-05-22T12:49:19.774Z,6.22
2019-05-22T12:51:50.452Z,3.98
2019-05-22T12:54:21.186Z,3.67
2019-05-22T12:56:51.838Z,4.95
2019-05-22T12:59:23.572Z,5.33
2019-05-22T13:01:55.909Z,4.25
2019-05-22T13:04:28.651Z,3.90
2019-05-22T13:07:00.761Z,5.72
2019-05-22T13:09:31.519Z,5.33
2019-05-22T13:12:03.048Z,3.33
2019-05-22T13:14:34.984Z,5.05
2019-05-22T13:17:07.857Z,4.17
2019-05-22T13:19:38.976Z,3.42
2019-05-22T13:22:12.564Z,4.97
2019-05-22T13:24:44.700Z,4.35
2019-05-22T13:27:17.728Z,5.00
2019-05-22T13:29:49.489Z,5.62
2019-05-22T13:32:22.016Z,4.78
2019-05-22T13:34:53.957Z,5.15
2019-05-22T13:37:24.600Z,3.58
2019-05-22T13:39:55.360Z,4.72
2019-05-22T13:42:26.781Z,4.95
2019-05-22T13:44:58.388Z,4.78
2019-05-22T13:47:29.292Z,3.27
2019-05-22T13:50:00.866Z,6.55
2019-05-22T13:52:31.624Z,6.08
2019-05-22T13:55:03.138Z,4.33
2019-05-22T13:57:34.199Z,3.67
2019-05-22T14:00:10.814Z,3.33
2019-05-22T14:02:41.581Z,4.92
2019-05-22T14:05:13.824Z,3.65
2019-05-22T14:07:45.571Z,6.90
2019-05-22T14:10:16.819Z,3.37
2019-05-22T14:12:47.845Z,4.10
2019-05-22T14:15:18.624Z,6.00
2019-05-22T14:17:49.287Z,4.45
2019-05-22T14:20:20.260Z,4.47
2019-05-22T14:22:50.894Z,5.62
2019-05-22T14:25:23.303Z,4.25
2019-05-22T14:27:54.007Z,3.33
2019-05-22T14:30:26.637Z,6.62
2019-05-22T14:33:03.971Z,4.05
2019-05-22T14:35:46.892Z,3.60
2019-05-22T14:38:07.242Z,5.28
2019-05-22T14:40:38.459Z,3.70
2019-05-22T14:43:10.599Z,9.23
2019-05-22T14:45:42.379Z,6.60
2019-05-22T14:48:13.895Z,4.33
2019-05-22T14:50:45.133Z,5.80
2019-05-22T14:53:16.584Z,4.53
2019-05-22T14:55:48.021Z,7.97
2019-05-22T14:58:19.298Z,6.25
2019-05-22T15:00:50.772Z,4.65
2019-05-22T15:03:21.475Z,8.20
2019-05-22T15:05:52.611Z,3.75
2019-05-22T15:08:24.041Z,4.67
2019-05-22T15:10:55.855Z,5.72
2019-05-22T15:13:26.673Z,6.17
2019-05-22T15:15:57.282Z,5.20
2019-05-22T15:18:28.713Z,4.10
2019-05-22T15:21:03.905Z,4.12
2019-05-22T15:23:34.852Z,4.53
2019-05-22T15:26:05.503Z,4.40
2019-05-22T15:28:36.420Z,4.62
2019-05-22T15:31:07.620Z,4.15
2019-05-22T15:33:38.644Z,4.10
2019-05-22T15:36:10.559Z,14.20
2019-05-22T15:38:43.667Z,3.70
2019-05-22T15:41:15.625Z,4.37
2019-05-22T15:43:52.555Z,5.30
2019-05-22T15:46:22.177Z,5.13
2019-05-22T15:48:53.776Z,4.77
2019-05-22T15:51:27.956Z,3.27
2019-05-22T15:54:01.683Z,3.40
2019-05-22T15:56:34.313Z,3.97
2019-05-22T15:59:07.412Z,3.57
2019-05-22T16:01:39.243Z,6.70
2019-05-22T16:04:12.525Z,5.17
2019-05-22T16:06:44.153Z,6.63
2019-05-22T16:09:16.291Z,3.33
2019-05-22T16:11:49.457Z,6.63
2019-05-22T16:14:21.068Z,2.53
2019-05-22T16:16:52.985Z,5.37
2019-05-22T16:19:25.490Z,2.87
2019-05-22T16:21:59.532Z,3.87
2019-05-22T16:24:30.802Z,3.30
2019-05-22T16:27:01.352Z,2.73
2019-05-22T16:29:33.047Z,4.03
2019-05-22T16:32:07.889Z,3.53
2019-05-22T16:34:41.528Z,3.50
2019-05-22T16:37:13.231Z,2.77
2019-05-22T16:39:44.536Z,4.20
2019-05-22T16:42:15.383Z,3.77
2019-05-22T16:44:58.103Z,2.60
2019-05-22T16:47:33.200Z,2.00
2019-05-22T16:50:03.188Z,2.30
2019-05-22T16:52:35.264Z,2.40
2019-05-22T16:55:08.190Z,2.47
2019-05-22T16:57:39.122Z,3.83
2019-05-22T17:00:11.894Z,3.00
2019-05-22T17:02:44.129Z,2.60
2019-05-22T17:05:15.545Z,3.53
2019-05-22T17:07:46.904Z,3.80
2019-05-22T17:10:18.268Z,3.00
2019-05-22T17:12:49.751Z,2.60
2019-05-22T17:15:20.606Z,2.67
2019-05-22T17:17:51.157Z,2.97
2019-05-22T17:20:23.931Z,3.13
2019-05-22T17:22:54.976Z,3.67
2019-05-22T17:25:26.587Z,3.30
2019-05-22T17:27:57.509Z,3.70
2019-05-22T17:30:30.291Z,8.80
2019-05-22T17:33:01.642Z,4.53
2019-05-22T17:35:32.254Z,3.57
2019-05-22T17:38:04.465Z,3.97
2019-05-22T17:40:36.551Z,3.37
2019-05-22T17:43:09.659Z,3.60
2019-05-22T17:45:42.871Z,3.17
2019-05-22T17:48:16.149Z,4.00
2019-05-22T17:50:47.474Z,5.17
2019-05-22T17:53:19.290Z,3.73
2019-05-22T17:55:50.698Z,3.53
2019-05-22T17:58:25.695Z,3.37
2019-05-22T18:00:54.429Z,4.73
2019-05-22T18:03:25.163Z,4.43
2019-05-22T18:05:56.398Z,7.53
2019-05-22T18:08:27.481Z,4.07
2019-05-22T18:10:59.460Z,3.60
2019-05-22T18:13:30.784Z,6.93
2019-05-22T18:16:04.484Z,4.90
2019-05-22T18:18:34.662Z,3.33
2019-05-22T18:21:05.974Z,4.60
2019-05-22T18:23:36.539Z,5.23
2019-05-22T18:26:07.153Z,3.90
2019-05-22T18:28:38.250Z,4.20
2019-05-22T18:31:09.189Z,4.87
2019-05-22T18:33:39.757Z,3.83
2019-05-22T18:36:10.524Z,3.63
2019-05-22T18:38:41.198Z,3.30
2019-05-22T18:41:11.916Z,4.00
2019-05-22T18:43:44.003Z,4.77
2019-05-22T18:46:14.710Z,3.33
2019-05-22T18:48:48.133Z,3.30
2019-05-22T18:51:17.563Z,3.23
2019-05-22T18:53:48.476Z,3.50
2019-05-22T18:56:19.074Z,3.37
2019-05-22T18:58:49.656Z,4.17
2019-05-22T19:01:20.562Z,3.50
2019-05-22T19:03:51.128Z,3.87
2019-05-22T19:06:30.265Z,3.23
2019-05-22T19:08:54.523Z,3.20
2019-05-22T19:11:25.045Z,3.93
2019-05-22T19:13:55.683Z,4.13
2019-05-22T19:16:26.889Z,3.43
2019-05-22T19:18:57.453Z,3.90
2019-05-22T19:21:28.190Z,3.53
2019-05-22T19:23:58.709Z,3.30
2019-05-22T19:26:29.873Z,3.03
2019-05-22T19:29:00.528Z,3.47
2019-05-22T19:31:31.155Z,2.87
2019-05-22T19:34:01.696Z,3.33
2019-05-22T19:36:32.245Z,3.50
2019-05-22T19:39:03.877Z,3.47
2019-05-22T19:41:34.968Z,3.67
2019-05-22T19:44:06.550Z,4.93
2019-05-22T19:46:37.102Z,3.53
2019-05-22T19:49:08.098Z,3.90
2019-05-22T19:51:39.749Z,5.43
2019-05-22T19:54:10.437Z,3.40
2019-05-22T19:56:41.660Z,3.50
2019-05-22T19:59:12.815Z,4.30
2019-05-22T20:01:43.785Z,3.50
2019-05-22T20:04:14.310Z,3.93
2019-05-22T20:06:45.624Z,3.47
2019-05-22T20:09:17.713Z,4.63
2019-05-22T20:11:48.185Z,3.67
2019-05-22T20:14:19.422Z,3.80
2019-05-22T20:16:49.729Z,4.80
2019-05-22T20:19:20.372Z,3.70
2019-05-22T20:21:51.613Z,3.73
2019-05-22T20:24:22.380Z,5.63
2019-05-22T20:26:53.281Z,4.17
2019-05-22T20:29:24.783Z,3.20
2019-05-22T20:31:55.877Z,4.03
2019-05-22T20:34:26.734Z,3.97
2019-05-22T20:36:57.618Z,3.90
2019-05-22T20:39:29.863Z,4.10
2019-05-22T20:42:00.408Z,3.63
2019-05-22T20:44:31.169Z,5.33
2019-05-22T20:47:02.063Z,3.50
2019-05-22T20:49:33.202Z,4.27
2019-05-22T20:52:04.824Z,4.67
2019-05-22T20:54:36.546Z,4.00
2019-05-22T20:57:08.592Z,4.97
2019-05-22T20:59:39.230Z,4.67
2019-05-22T21:02:11.150Z,4.00
2019-05-22T21:04:43.850Z,4.60
2019-05-22T21:07:17.149Z,4.03
2019-05-22T21:09:48.069Z,7.90
2019-05-22T21:12:20.703Z,4.00
2019-05-22T21:14:50.981Z,4.30
2019-05-22T21:17:21.289Z,5.10
2019-05-22T21:19:52.008Z,4.30
2019-05-22T21:22:24.045Z,4.60
2019-05-22T21:24:54.469Z,4.77
2019-05-22T21:27:25.233Z,4.07
2019-05-22T21:29:56.162Z,4.60
2019-05-22T21:32:27.308Z,4.20
2019-05-22T21:34:58.222Z,4.50
2019-05-22T21:37:28.717Z,6.27
2019-05-22T21:39:59.899Z,5.43
2019-05-22T21:42:31.608Z,4.50
2019-05-22T21:45:01.888Z,5.13
2019-05-22T21:47:33.345Z,4.23
2019-05-22T21:50:06.707Z,4.80
2019-05-22T21:52:37.423Z,4.80
2019-05-22T21:55:11.352Z,5.53
2019-05-22T21:57:42.501Z,5.20
2019-05-22T22:00:17.708Z,5.10
2019-05-22T22:02:50.123Z,4.73
2019-05-22T22:05:20.829Z,6.17
2019-05-22T22:07:51.561Z,5.60
2019-05-22T22:10:22.398Z,4.13
2019-05-22T22:12:53.628Z,4.20
2019-05-22T22:15:24.977Z,4.90
2019-05-22T22:17:56.391Z,4.67
2019-05-22T22:20:26.682Z,4.30
2019-05-22T22:22:56.893Z,4.73
2019-05-22T22:25:27.566Z,4.40
2019-05-22T22:27:58.281Z,5.00
2019-05-22T22:30:30.297Z,4.50
2019-05-22T22:33:05.116Z,4.53
2019-05-22T22:35:36.162Z,5.10
2019-05-22T22:38:08.257Z,4.70
2019-05-22T22:40:40.782Z,4.67
2019-05-22T22:43:12.498Z,4.27
2019-05-22T22:45:47.481Z,5.43
2019-05-22T22:48:19.876Z,4.80
2019-05-22T22:50:50.433Z,4.87
2019-05-22T22:53:21.298Z,5.23
2019-05-22T22:55:51.813Z,4.53
2019-05-22T22:58:22.878Z,4.97
2019-05-22T23:00:56.815Z,5.20
2019-05-22T23:03:30.141Z,5.33
2019-05-22T23:06:00.768Z,8.13
2019-05-22T23:08:33.365Z,5.50
2019-05-22T23:11:05.565Z,8.70
2019-05-22T23:13:37.324Z,4.90
2019-05-22T23:16:07.856Z,5.60
2019-05-22T23:18:43.005Z,5.10
2019-05-22T23:21:16.889Z,6.43
2019-05-22T23:23:46.288Z,4.73
2019-05-22T23:26:16.766Z,5.50
2019-05-22T23:28:47.374Z,5.27
2019-05-22T23:31:18.899Z,5.10
2019-05-22T23:33:50.070Z,4.90
2019-05-22T23:36:21.477Z,4.73
2019-05-22T23:38:52.310Z,5.53
2019-05-22T23:41:23.966Z,5.93
2019-05-22T23:43:55.757Z,4.90
2019-05-22T23:46:29.277Z,5.33
2019-05-22T23:48:59.797Z,5.47
2019-05-22T23:51:30.551Z,5.47
2019-05-22T23:54:02.413Z,5.50
2019-05-22T23:56:34.420Z,6.03
2019-05-22T23:59:05.165Z,5.60
